Terminal Aerodrome Forecast
Issued by NWS Cleveland, OH

Home | Current Version | Previous Version | Text Only | Print | Product List | Glossary Off
Versions: 1 2 3 4 5 6 7 8 9 10 11 12 13 14 15 16 17 18 19 20 21 22 23 24 25 26 27 28 29 30 31 32 33 34 35 36 37 38 39

000
FTUS41 KCLE 020100 AAA
TAFCLE
TAF AMD
KCLE 020103Z 0201/0306 30008KT 6SM -SN BR BKN060
      TEMPO 0201/0203 5SM BR
     FM020600 26006KT 6SM BR SCT008 OVC025
     FM020900 27011KT P6SM SCT025 OVC045
     FM021500 28011KT P6SM SCT045 BKN250
     FM030000 28004KT P6SM BKN250=

USA.gov is the U.S. government's official web portal to all federal, state and local government web resources and services.